Time;durP1;ratioP1;P1;durP2;ratioP2;P2;SDS_P1;SDS_P2;PMS_P1;PMS_P2;Temp;Humidity;BMP_temperature;BMP_pressure;BME280_temperature;BME280_humidity;BME280_pressure;Samples;Min_cycle;Max_cycle;Signal;HPM_P1;HPM_P2
2022/01/19 00:04:34;;;;;;;58.13;30.33;;;;;-0.10;102670.00;;;;9919124;29;20199;-77
2022/01/19 00:09:36;;;;;;;61.57;30.50;;;;;0.10;102663.00;;;;9918837;29;20223;-77
2022/01/19 00:14:38;;;;;;;58.40;30.07;;;;;0.10;102678.00;;;;9881600;30;20265;-77
2022/01/19 00:19:40;;;;;;;63.17;31.03;;;;;0.10;102675.00;;;;9866798;30;20239;-77
2022/01/19 00:24:43;;;;;;;60.70;31.03;;;;;0.10;102673.00;;;;9873238;29;20256;-77
2022/01/19 00:29:46;;;;;;;55.87;29.33;;;;;0.10;102655.00;;;;9951526;29;20203;-77
2022/01/19 00:34:47;;;;;;;69.90;32.33;;;;;0.00;102624.00;;;;9897845;29;20211;-77
2022/01/19 00:39:50;;;;;;;59.50;29.83;;;;;-0.10;102585.00;;;;9917921;29;20230;-77
2022/01/19 00:44:52;;;;;;;60.10;31.03;;;;;-0.10;102572.00;;;;9918144;29;20618;-77
2022/01/19 00:49:54;;;;;;;58.63;31.67;;;;;-0.20;102586.00;;;;9940516;29;20248;-77
2022/01/19 00:54:56;;;;;;;55.27;28.27;;;;;-0.30;102592.00;;;;9954885;29;20202;-77
2022/01/19 00:59:58;;;;;;;58.97;31.20;;;;;-0.40;102583.00;;;;9939405;29;20725;-77
2022/01/19 01:05:01;;;;;;;63.63;30.00;;;;;-0.40;102585.00;;;;9876479;30;20233;-77
2022/01/19 01:10:17;;;;;;;59.93;28.30;;;;;-0.40;102589.00;;;;9864867;29;20270;-77
2022/01/19 01:15:46;;;;;;;60.60;27.57;;;;;-0.50;102572.00;;;;9879988;30;20222;-78
2022/01/19 01:20:53;;;;;;;59.77;29.23;;;;;-0.50;102555.00;;;;9927959;29;20223;-77
2022/01/19 01:25:55;;;;;;;65.33;29.37;;;;;-0.60;102548.00;;;;9917281;29;20210;-77
2022/01/19 01:30:57;;;;;;;59.13;28.70;;;;;-0.70;102553.00;;;;9896891;29;20243;-77
2022/01/19 01:36:00;;;;;;;71.20;30.30;;;;;-0.70;102542.00;;;;9864889;30;20200;-78
2022/01/19 01:41:03;;;;;;;54.30;27.93;;;;;-0.80;102533.00;;;;9922380;29;20283;-77
2022/01/19 01:46:12;;;;;;;58.03;30.90;;;;;-0.80;102549.00;;;;9916468;29;20207;-77
2022/01/19 01:56:41;;;;;;;59.20;30.17;;;;;-0.80;102519.00;;;;9901988;29;20207;-77
2022/01/19 02:01:43;;;;;;;70.03;30.60;;;;;-0.70;102507.00;;;;9917407;29;20262;-78
2022/01/19 02:22:52;;;;;;;83.60;34.37;;;;;-0.30;102459.00;;;;9939384;29;20221;-78
2022/01/19 02:43:57;;;;;;;74.37;32.60;;;;;-0.30;102429.00;;;;9896247;29;20844;-78
2022/01/19 02:49:16;;;;;;;84.07;30.37;;;;;-0.30;102418.00;;;;9933730;29;20209;-78
2022/01/19 02:54:23;;;;;;;84.07;31.67;;;;;-0.40;102398.00;;;;9919487;29;20281;-78
2022/01/19 02:59:38;;;;;;;84.73;33.50;;;;;-0.30;102398.00;;;;9923133;29;20247;-78
2022/01/19 03:10:01;;;;;;;82.27;32.57;;;;;0.20;102365.00;;;;9922443;29;20223;-77
2022/01/19 03:15:07;;;;;;;85.30;33.43;;;;;0.30;102369.00;;;;9907400;29;20209;-77
2022/01/19 03:20:10;;;;;;;80.17;30.53;;;;;0.50;102386.00;;;;9921638;29;20229;-77
2022/01/19 03:25:13;;;;;;;82.60;32.70;;;;;0.70;102373.00;;;;9944732;29;20566;-78
2022/01/19 03:30:18;;;;;;;92.67;32.67;;;;;0.90;102370.00;;;;9885868;30;20211;-78
2022/01/19 03:35:20;;;;;;;88.73;32.20;;;;;1.10;102356.00;;;;9885033;30;20208;-77
2022/01/19 03:40:22;;;;;;;81.27;32.03;;;;;1.30;102345.00;;;;9908098;29;20287;-78
2022/01/19 03:45:25;;;;;;;74.63;29.53;;;;;1.40;102333.00;;;;9921309;29;20614;-78
2022/01/19 03:50:26;;;;;;;76.50;29.67;;;;;1.60;102333.00;;;;9938695;29;20611;-77
2022/01/19 03:55:28;;;;;;;62.90;26.23;;;;;1.80;102331.00;;;;9920523;29;20221;-78
2022/01/19 04:00:34;;;;;;;54.97;23.00;;;;;1.90;102319.00;;;;9886235;29;20223;-78
2022/01/19 04:05:55;;;;;;;48.37;22.20;;;;;2.00;102323.00;;;;9919436;29;20259;-78
2022/01/19 04:10:57;;;;;;;39.97;19.97;;;;;2.10;102305.00;;;;9896051;29;20239;-78
2022/01/19 04:16:00;;;;;;;45.20;21.97;;;;;2.30;102305.00;;;;9918361;29;20214;-77
2022/01/19 04:21:02;;;;;;;43.87;20.50;;;;;2.40;102302.00;;;;9964669;29;20561;-79
2022/01/19 04:26:06;;;;;;;38.10;20.87;;;;;2.50;102298.00;;;;9919229;29;20199;-79
2022/01/19 04:31:09;;;;;;;44.77;22.33;;;;;2.60;102301.00;;;;9904500;29;20307;-79
2022/01/19 05:03:20;;;;;;;37.70;21.13;;;;;2.80;102280.00;;;;9903631;29;20219;-78
2022/01/19 05:13:36;;;;;;;34.53;19.67;;;;;2.80;102277.00;;;;9917757;29;20217;-78
2022/01/19 05:18:39;;;;;;;37.87;21.10;;;;;2.90;102273.00;;;;9901088;29;20301;-78
2022/01/19 05:23:43;;;;;;;36.50;19.97;;;;;2.90;102269.00;;;;9926425;29;20206;-78
2022/01/19 05:28:45;;;;;;;34.77;21.03;;;;;2.90;102259.00;;;;9955544;29;20222;-78
2022/01/19 05:33:47;;;;;;;34.80;19.60;;;;;2.90;102251.00;;;;9872645;30;20200;-78
2022/01/19 05:38:49;;;;;;;35.57;21.20;;;;;3.00;102253.00;;;;9907728;29;20237;-78
2022/01/19 05:43:59;;;;;;;32.47;21.07;;;;;3.00;102257.00;;;;9918153;29;20218;-78
2022/01/19 05:49:02;;;;;;;36.30;20.67;;;;;3.10;102258.00;;;;9929023;29;20198;-78
2022/01/19 05:54:05;;;;;;;36.43;21.10;;;;;3.10;102256.00;;;;9939307;29;20301;-78
2022/01/19 05:59:07;;;;;;;36.07;21.57;;;;;3.00;102249.00;;;;9940552;29;20301;-78
2022/01/19 06:04:09;;;;;;;34.13;20.17;;;;;3.00;102232.00;;;;9889020;29;20207;-78
2022/01/19 06:10:05;;;;;;;31.57;19.90;;;;;3.10;102228.00;;;;9913041;29;20310;-78
2022/01/19 06:14:59;;;;;;;32.87;20.37;;;;;3.10;102224.00;;;;9969250;29;20770;-78
2022/01/19 06:20:02;;;;;;;29.93;19.67;;;;;3.10;102220.00;;;;9941628;29;20222;-78
2022/01/19 06:25:05;;;;;;;38.50;20.50;;;;;3.10;102225.00;;;;9939146;29;20206;-78
2022/01/19 06:30:07;;;;;;;36.23;22.20;;;;;3.10;102215.00;;;;9940648;29;20199;-78
2022/01/19 06:35:09;;;;;;;36.30;21.43;;;;;3.10;102213.00;;;;9924348;29;20294;-78
2022/01/19 06:40:30;;;;;;;39.17;22.23;;;;;3.20;102223.00;;;;9926344;29;20242;-78
2022/01/19 06:45:32;;;;;;;39.53;21.93;;;;;3.20;102210.00;;;;9894631;29;20207;-78
2022/01/19 06:50:34;;;;;;;36.30;21.07;;;;;3.20;102204.00;;;;9905822;29;20199;-78
2022/01/19 06:55:36;;;;;;;35.10;21.47;;;;;3.20;102199.00;;;;9906140;29;20269;-78
2022/01/19 07:00:40;;;;;;;34.57;21.10;;;;;3.20;102198.00;;;;9891314;29;20271;-78
2022/01/19 07:05:58;;;;;;;35.20;20.30;;;;;3.20;102191.00;;;;9920704;29;20203;-78
2022/01/19 07:11:13;;;;;;;31.70;20.37;;;;;3.20;102174.00;;;;9908326;29;20861;-78
2022/01/19 07:16:16;;;;;;;31.90;20.03;;;;;3.20;102156.00;;;;9907805;29;20272;-78
2022/01/19 07:21:18;;;;;;;32.93;20.27;;;;;3.30;102160.00;;;;9922648;29;20646;-78
2022/01/19 07:26:26;;;;;;;31.73;19.90;;;;;3.30;102158.00;;;;9922787;29;20227;-78
2022/01/19 07:31:28;;;;;;;31.73;20.87;;;;;3.30;102148.00;;;;9922520;29;20248;-78
2022/01/19 07:36:38;;;;;;;33.33;20.30;;;;;3.40;102147.00;;;;9879026;30;20200;-78
2022/01/19 07:41:42;;;;;;;34.17;20.77;;;;;3.40;102150.00;;;;9917507;29;20330;-78
2022/01/19 07:47:12;;;;;;;35.87;20.73;;;;;3.40;102150.00;;;;9910671;29;20210;-78
2022/01/19 07:52:34;;;;;;;33.10;21.50;;;;;3.50;102142.00;;;;9863091;30;20310;-78
2022/01/19 07:57:50;;;;;;;32.47;21.37;;;;;3.50;102144.00;;;;9885169;30;20208;-78
2022/01/19 08:03:18;;;;;;;32.00;21.13;;;;;3.50;102135.00;;;;9940316;29;20226;-78
2022/01/19 08:08:36;;;;;;;36.53;21.63;;;;;3.60;102139.00;;;;9918283;29;20231;-78
2022/01/19 08:13:39;;;;;;;38.83;21.33;;;;;3.60;102135.00;;;;9946289;29;20565;-78
2022/01/19 08:18:41;;;;;;;35.03;21.70;;;;;3.60;102140.00;;;;9897071;29;20664;-78
2022/01/19 08:23:44;;;;;;;34.73;20.77;;;;;3.60;102141.00;;;;9859088;29;20227;-78
2022/01/19 08:28:47;;;;;;;35.17;21.20;;;;;3.70;102131.00;;;;9914586;29;20211;-78
2022/01/19 08:33:49;;;;;;;32.80;21.80;;;;;3.70;102136.00;;;;9925329;29;20229;-79
2022/01/19 08:38:57;;;;;;;34.23;21.13;;;;;3.70;102138.00;;;;9903829;29;20616;-78
2022/01/19 08:44:05;;;;;;;34.07;21.77;;;;;3.80;102134.00;;;;9895012;29;20648;-79
2022/01/19 08:49:11;;;;;;;33.70;22.17;;;;;3.90;102115.00;;;;9884321;29;20211;-78
2022/01/19 08:54:35;;;;;;;33.93;21.57;;;;;4.10;102127.00;;;;9913871;29;20252;-78
2022/01/19 08:59:40;;;;;;;30.67;20.80;;;;;4.20;102108.00;;;;9917839;29;20264;-79
2022/01/19 09:04:42;;;;;;;33.27;20.27;;;;;4.30;102111.00;;;;9917619;29;20206;-79
2022/01/19 09:09:44;;;;;;;36.07;21.27;;;;;4.30;102112.00;;;;9902199;29;20219;-79
2022/01/19 09:14:46;;;;;;;34.17;21.43;;;;;4.40;102105.00;;;;9895501;29;20371;-79
2022/01/19 09:19:49;;;;;;;30.33;21.23;;;;;4.50;102097.00;;;;9900077;29;20234;-78
2022/01/19 09:24:50;;;;;;;31.30;21.50;;;;;4.50;102102.00;;;;9915953;29;20267;-79
2022/01/19 09:29:52;;;;;;;29.50;20.87;;;;;4.50;102097.00;;;;9916475;29;20195;-79
2022/01/19 09:35:04;;;;;;;31.83;21.70;;;;;4.40;102093.00;;;;9887189;29;20222;-79
2022/01/19 09:40:07;;;;;;;31.47;20.53;;;;;4.40;102096.00;;;;9930538;29;20237;-79
2022/01/19 09:45:09;;;;;;;30.83;20.27;;;;;4.40;102088.00;;;;9878294;29;20199;-78
2022/01/19 09:50:11;;;;;;;30.83;20.00;;;;;4.40;102078.00;;;;9889573;29;20207;-79
2022/01/19 09:55:15;;;;;;;29.67;20.67;;;;;4.40;102074.00;;;;9889091;29;20698;-79
2022/01/19 10:00:17;;;;;;;31.00;20.47;;;;;4.40;102055.00;;;;9899663;29;20692;-79
2022/01/19 10:05:19;;;;;;;27.47;19.50;;;;;4.40;102053.00;;;;9907827;29;20257;-78
2022/01/19 10:10:21;;;;;;;29.17;17.83;;;;;4.50;102035.00;;;;9890228;29;20252;-79
2022/01/19 10:21:07;;;;;;;28.67;19.53;;;;;4.60;102022.00;;;;9905745;29;20756;-79
2022/01/19 10:26:13;;;;;;;31.23;21.70;;;;;4.70;102020.00;;;;9930009;29;20268;-79
2022/01/19 10:31:18;;;;;;;30.57;19.77;;;;;4.80;102009.00;;;;9900714;29;20195;-79
2022/01/19 10:36:40;;;;;;;30.20;20.40;;;;;4.80;102003.00;;;;9885111;29;20580;-79
2022/01/19 10:42:07;;;;;;;29.17;20.17;;;;;4.80;101999.00;;;;9915105;29;20230;-78
2022/01/19 10:47:10;;;;;;;28.80;19.60;;;;;4.90;102007.00;;;;9901129;29;20207;-78
2022/01/19 10:52:28;;;;;;;33.97;19.87;;;;;5.00;102001.00;;;;9917279;29;20199;-79
2022/01/19 10:57:32;;;;;;;29.83;20.70;;;;;5.00;101989.00;;;;9929642;29;20288;-79
2022/01/19 11:02:37;;;;;;;30.97;20.03;;;;;5.10;101987.00;;;;9938249;29;20217;-79
2022/01/19 11:07:40;;;;;;;32.23;19.87;;;;;5.20;101981.00;;;;9899812;29;20262;-79
2022/01/19 11:12:47;;;;;;;30.87;21.67;;;;;5.20;101982.00;;;;9899578;29;20672;-79
2022/01/19 11:17:54;;;;;;;27.13;19.40;;;;;5.10;101977.00;;;;9889809;29;20280;-78
2022/01/19 11:23:26;;;;;;;27.73;19.50;;;;;5.10;101967.00;;;;9908548;29;20256;-79
2022/01/19 11:28:33;;;;;;;34.10;20.23;;;;;5.00;101961.00;;;;9882815;30;20207;-79
2022/01/19 11:33:44;;;;;;;30.03;19.70;;;;;5.00;101958.00;;;;9921782;29;20205;-78
2022/01/19 11:38:50;;;;;;;32.40;19.67;;;;;5.00;101943.00;;;;9903175;29;20290;-78
2022/01/19 11:43:55;;;;;;;31.20;21.47;;;;;5.00;101940.00;;;;9920105;29;20587;-78
2022/01/19 11:48:59;;;;;;;30.77;20.63;;;;;5.00;101924.00;;;;9920599;29;20668;-78
2022/01/19 11:54:04;;;;;;;29.93;22.20;;;;;5.00;101920.00;;;;9919885;29;20256;-79
2022/01/19 11:59:09;;;;;;;31.33;20.80;;;;;5.00;101907.00;;;;9904815;29;20218;-78
2022/01/19 12:04:17;;;;;;;35.10;20.73;;;;;5.00;101910.00;;;;9905136;29;20894;-79
2022/01/19 12:09:19;;;;;;;31.23;20.37;;;;;5.10;101891.00;;;;9903657;29;20239;-78
2022/01/19 12:14:33;;;;;;;36.33;20.43;;;;;5.20;101890.00;;;;9889285;30;20219;-78
2022/01/19 12:19:42;;;;;;;38.43;21.90;;;;;5.60;101875.00;;;;9917307;29;20211;-78
2022/01/19 12:25:01;;;;;;;39.37;23.57;;;;;5.90;101857.00;;;;9896719;29;20226;-78
2022/01/19 12:30:15;;;;;;;32.73;21.37;;;;;6.10;101841.00;;;;9904474;29;20206;-78
2022/01/19 12:35:20;;;;;;;36.83;20.40;;;;;6.20;101834.00;;;;9910364;29;20211;-79
2022/01/19 12:40:33;;;;;;;31.57;21.13;;;;;6.00;101851.00;;;;9919850;29;20219;-79
2022/01/19 12:45:47;;;;;;;33.30;21.27;;;;;5.80;101833.00;;;;9903284;29;20210;-79
2022/01/19 12:50:50;;;;;;;35.50;21.10;;;;;5.70;101829.00;;;;9899553;29;20208;-78
2022/01/19 12:56:09;;;;;;;34.60;21.10;;;;;5.60;101828.00;;;;9870575;30;20257;-79
2022/01/19 13:01:11;;;;;;;35.57;21.10;;;;;5.60;101823.00;;;;9881055;29;20227;-79
2022/01/19 13:06:15;;;;;;;35.27;22.70;;;;;5.70;101813.00;;;;9901151;29;20211;-78
2022/01/19 13:11:27;;;;;;;34.43;21.87;;;;;5.80;101806.00;;;;9903387;29;20215;-79
2022/01/19 13:16:45;;;;;;;39.23;21.83;;;;;5.80;101792.00;;;;9902258;29;20203;-78
2022/01/19 13:22:01;;;;;;;35.77;22.57;;;;;5.90;101780.00;;;;9923416;29;20214;-78
2022/01/19 13:27:05;;;;;;;37.87;22.63;;;;;5.90;101775.00;;;;9887638;29;20202;-78
2022/01/19 13:32:20;;;;;;;30.90;19.90;;;;;6.00;101763.00;;;;9918609;29;20199;-78
2022/01/19 13:37:24;;;;;;;36.57;22.70;;;;;5.90;101764.00;;;;9896026;29;20202;-79
2022/01/19 13:42:39;;;;;;;37.00;22.50;;;;;5.70;101760.00;;;;9917703;29;20203;-79
2022/01/19 13:53:29;;;;;;;42.30;21.83;;;;;5.60;101726.00;;;;9920755;29;20209;-79
2022/01/19 13:58:48;;;;;;;42.43;23.30;;;;;5.70;101728.00;;;;9923133;29;20202;-79
2022/01/19 14:03:52;;;;;;;38.97;21.77;;;;;5.60;101712.00;;;;9931880;29;20213;-79
2022/01/19 14:09:14;;;;;;;42.30;22.63;;;;;5.60;101722.00;;;;9915728;29;20290;-78
2022/01/19 14:14:32;;;;;;;35.60;22.27;;;;;5.60;101708.00;;;;9878469;30;20203;-79
2022/01/19 14:19:48;;;;;;;37.47;22.80;;;;;5.50;101703.00;;;;9894989;29;20572;-79
2022/01/19 14:24:58;;;;;;;35.57;22.20;;;;;5.50;101705.00;;;;9905339;29;20207;-79
2022/01/19 14:30:24;;;;;;;35.73;22.13;;;;;5.60;101702.00;;;;9883368;30;20196;-79
2022/01/19 14:35:46;;;;;;;38.20;22.33;;;;;5.60;101693.00;;;;9912087;29;20232;-79
2022/01/19 14:41:06;;;;;;;38.93;23.00;;;;;5.60;101680.00;;;;9922718;29;20624;-79
2022/01/19 14:46:12;;;;;;;38.33;23.23;;;;;5.60;101687.00;;;;9952747;29;20205;-79
2022/01/19 14:51:27;;;;;;;47.63;23.07;;;;;5.50;101682.00;;;;9901135;29;20297;-78
2022/01/19 14:56:36;;;;;;;45.17;24.03;;;;;5.50;101692.00;;;;9883599;29;20203;-78
2022/01/19 15:01:44;;;;;;;36.13;23.37;;;;;5.50;101688.00;;;;9892041;29;20216;-79
2022/01/19 15:06:48;;;;;;;42.47;24.03;;;;;5.50;101678.00;;;;9936301;29;20218;-78
2022/01/19 15:11:50;;;;;;;40.93;24.47;;;;;5.50;101679.00;;;;9885053;30;20212;-79
2022/01/19 15:16:52;;;;;;;44.97;23.63;;;;;5.60;101666.00;;;;9883687;30;20298;-79
2022/01/19 15:21:54;;;;;;;42.17;23.33;;;;;5.60;101668.00;;;;9883648;30;20224;-78
2022/01/19 15:26:56;;;;;;;43.80;24.63;;;;;5.50;101677.00;;;;9898813;30;20254;-79
2022/01/19 15:31:58;;;;;;;42.10;23.97;;;;;5.50;101679.00;;;;9918553;29;20203;-79
2022/01/19 15:37:01;;;;;;;38.97;23.80;;;;;5.50;101679.00;;;;9869094;30;20196;-79
2022/01/19 15:42:03;;;;;;;43.20;23.77;;;;;5.40;101679.00;;;;9919445;29;20222;-80
2022/01/19 15:47:05;;;;;;;45.40;22.03;;;;;5.30;101695.00;;;;9935101;29;20252;-79
2022/01/19 15:52:07;;;;;;;44.27;25.27;;;;;5.30;101681.00;;;;9902487;29;20205;-78
2022/01/19 15:57:09;;;;;;;53.30;25.30;;;;;5.30;101686.00;;;;9904911;29;20229;-79
2022/01/19 16:02:11;;;;;;;51.00;25.70;;;;;5.20;101695.00;;;;9889007;29;20219;-80
2022/01/19 16:07:13;;;;;;;52.43;26.87;;;;;5.20;101702.00;;;;9890025;29;20222;-81
2022/01/19 16:12:16;;;;;;;45.63;25.50;;;;;5.10;101686.00;;;;9905575;29;20203;-80
2022/01/19 16:17:18;;;;;;;54.20;26.73;;;;;5.10;101689.00;;;;9919391;29;20203;-81
2022/01/19 16:27:42;;;;;;;51.83;27.20;;;;;5.10;101692.00;;;;9930794;29;20201;-80
2022/01/19 16:32:45;;;;;;;54.60;29.20;;;;;5.10;101697.00;;;;9919300;29;20293;-80
2022/01/19 16:37:47;;;;;;;63.40;30.40;;;;;5.10;101700.00;;;;9903676;29;20207;-80
2022/01/19 16:42:48;;;;;;;51.90;27.37;;;;;5.20;101708.00;;;;9908956;29;20214;-80
2022/01/19 16:47:56;;;;;;;58.13;29.70;;;;;5.20;101716.00;;;;9927021;29;20255;-79
2022/01/19 16:52:58;;;;;;;67.57;30.40;;;;;5.20;101720.00;;;;9910671;29;20215;-80
2022/01/19 16:58:01;;;;;;;60.10;30.57;;;;;5.30;101711.00;;;;9926815;29;20267;-80
2022/01/19 17:03:03;;;;;;;58.97;30.73;;;;;5.30;101722.00;;;;9864954;30;20224;-79
2022/01/19 17:08:05;;;;;;;55.93;31.07;;;;;5.30;101718.00;;;;9889518;29;20326;-80
2022/01/19 17:13:20;;;;;;;57.77;30.70;;;;;5.30;101716.00;;;;9925025;29;20195;-79
2022/01/19 17:18:23;;;;;;;64.47;32.70;;;;;5.30;101721.00;;;;9897448;29;20202;-80
2022/01/19 17:23:24;;;;;;;64.37;30.63;;;;;5.30;101726.00;;;;9880609;29;20231;-80
2022/01/19 17:28:27;;;;;;;57.27;32.43;;;;;5.30;101728.00;;;;9895367;30;20665;-79
2022/01/19 17:33:29;;;;;;;65.03;33.13;;;;;5.30;101722.00;;;;9899298;29;20203;-80
2022/01/19 17:38:31;;;;;;;66.30;33.27;;;;;5.40;101735.00;;;;9919266;29;20207;-81
2022/01/19 17:43:33;;;;;;;57.70;31.47;;;;;5.40;101747.00;;;;9943696;29;20222;-81
2022/01/19 17:53:37;;;;;;;62.33;33.30;;;;;5.50;101744.00;;;;9916588;29;20210;-81
2022/01/19 17:58:43;;;;;;;61.30;33.80;;;;;5.50;101760.00;;;;9901133;29;20211;-80
2022/01/19 18:03:45;;;;;;;65.10;33.07;;;;;5.60;101760.00;;;;9909408;29;20217;-80
2022/01/19 18:08:51;;;;;;;69.73;32.93;;;;;5.60;101771.00;;;;9969134;29;20222;-80
2022/01/19 18:13:54;;;;;;;69.07;35.53;;;;;5.70;101767.00;;;;9919415;29;20205;-80
2022/01/19 18:18:56;;;;;;;61.87;32.60;;;;;5.70;101762.00;;;;9912477;29;20217;-79
2022/01/19 18:23:58;;;;;;;59.27;32.70;;;;;5.80;101773.00;;;;9914384;29;20219;-80
2022/01/19 18:29:01;;;;;;;67.03;34.97;;;;;5.80;101784.00;;;;9901529;29;20199;-80
2022/01/19 18:34:04;;;;;;;66.17;34.63;;;;;5.90;101789.00;;;;9917404;29;20651;-79
2022/01/19 18:39:06;;;;;;;65.83;33.40;;;;;5.90;101802.00;;;;9931239;29;20202;-80
2022/01/19 18:44:08;;;;;;;59.87;30.07;;;;;5.90;101830.00;;;;9920054;29;20219;-80
2022/01/19 18:49:10;;;;;;;62.03;32.33;;;;;5.90;101812.00;;;;9921369;29;20206;-80
2022/01/19 18:54:15;;;;;;;50.40;29.50;;;;;6.00;101809.00;;;;9937934;29;20546;-80
2022/01/19 18:59:17;;;;;;;56.13;30.47;;;;;6.00;101810.00;;;;9922719;29;20206;-80
2022/01/19 19:04:19;;;;;;;58.30;28.83;;;;;6.00;101819.00;;;;9952133;29;20802;-79
2022/01/19 19:09:23;;;;;;;62.03;26.87;;;;;6.00;101815.00;;;;9906344;29;20299;-79
2022/01/19 19:14:25;;;;;;;46.97;24.90;;;;;6.00;101813.00;;;;9899920;29;20207;-80
2022/01/19 19:19:29;;;;;;;51.93;23.30;;;;;6.10;101822.00;;;;9885475;29;20335;-79
2022/01/19 19:24:32;;;;;;;43.87;20.67;;;;;6.10;101829.00;;;;9899901;29;20225;-80
2022/01/19 19:29:35;;;;;;;42.90;19.90;;;;;6.20;101838.00;;;;9946619;29;20575;-79
2022/01/19 19:34:38;;;;;;;30.83;16.53;;;;;6.20;101846.00;;;;9952643;29;20281;-80
2022/01/19 19:39:42;;;;;;;43.97;16.47;;;;;6.20;101857.00;;;;9917071;29;20255;-80
2022/01/19 19:44:44;;;;;;;33.90;14.20;;;;;6.20;101860.00;;;;9927928;29;20218;-79
2022/01/19 19:49:46;;;;;;;30.47;12.67;;;;;6.20;101871.00;;;;9927834;29;20212;-80
2022/01/19 19:54:49;;;;;;;26.53;12.17;;;;;6.10;101860.00;;;;9904479;29;20204;-79
2022/01/19 19:59:50;;;;;;;29.27;11.20;;;;;6.00;101879.00;;;;9949359;29;20237;-81
2022/01/19 20:04:52;;;;;;;36.03;13.07;;;;;6.00;101887.00;;;;9926891;29;20210;-79
2022/01/19 20:09:54;;;;;;;33.77;10.60;;;;;5.90;101893.00;;;;9906278;29;20265;-79
2022/01/19 20:14:58;;;;;;;22.43;9.93;;;;;6.00;101894.00;;;;9905044;29;20199;-79
2022/01/19 20:20:02;;;;;;;25.97;8.77;;;;;6.00;101898.00;;;;9904551;29;20226;-79
2022/01/19 20:25:04;;;;;;;27.50;8.13;;;;;6.00;101923.00;;;;9889429;29;20219;-80
2022/01/19 20:30:07;;;;;;;22.10;8.33;;;;;6.00;101928.00;;;;9920117;29;20207;-80
2022/01/19 20:35:09;;;;;;;18.07;5.50;;;;;6.00;101932.00;;;;9919714;29;20206;-80
2022/01/19 20:40:12;;;;;;;16.40;4.47;;;;;5.90;101948.00;;;;9889734;29;20576;-80
2022/01/19 20:45:14;;;;;;;15.30;4.53;;;;;5.90;101959.00;;;;9890613;29;20215;-80
2022/01/19 20:50:17;;;;;;;15.43;3.70;;;;;5.90;101968.00;;;;9919043;29;20583;-80
2022/01/19 20:55:18;;;;;;;20.63;3.73;;;;;5.90;101971.00;;;;9897248;30;20204;-80
2022/01/19 21:00:21;;;;;;;16.77;4.13;;;;;6.00;101973.00;;;;9880969;30;20204;-79
2022/01/19 21:05:23;;;;;;;15.83;4.33;;;;;5.90;101990.00;;;;9917830;29;20738;-80
2022/01/19 21:10:25;;;;;;;29.80;4.50;;;;;5.90;101987.00;;;;9932881;29;20283;-79
2022/01/19 21:15:28;;;;;;;13.00;3.50;;;;;5.70;101994.00;;;;9903165;29;20202;-80
2022/01/19 21:20:31;;;;;;;18.63;4.33;;;;;5.50;101999.00;;;;9921110;29;20213;-80
2022/01/19 21:25:34;;;;;;;18.00;3.70;;;;;5.30;101993.00;;;;9937578;29;20218;-80
2022/01/19 21:30:37;;;;;;;20.50;4.17;;;;;5.20;102009.00;;;;9922710;29;20201;-80
2022/01/19 21:35:40;;;;;;;16.40;3.80;;;;;5.10;102006.00;;;;9898557;29;20688;-80
2022/01/19 21:40:42;;;;;;;19.57;3.50;;;;;4.90;102008.00;;;;9884210;30;20215;-80
2022/01/19 21:45:45;;;;;;;24.00;3.57;;;;;4.70;102023.00;;;;9880918;30;20269;-80
2022/01/19 21:50:51;;;;;;;15.90;3.57;;;;;4.60;102016.00;;;;9913426;29;20210;-80
2022/01/19 21:55:54;;;;;;;19.83;4.20;;;;;4.40;102020.00;;;;9910667;29;20604;-80
2022/01/19 22:00:56;;;;;;;15.40;4.20;;;;;4.30;102029.00;;;;9920274;29;20195;-80
2022/01/19 22:05:59;;;;;;;22.57;4.13;;;;;4.10;102032.00;;;;9902443;29;20227;-80
2022/01/19 22:11:02;;;;;;;20.27;4.77;;;;;4.10;102023.00;;;;9902308;29;20239;-80
2022/01/19 22:16:24;;;;;;;21.10;5.47;;;;;4.00;102032.00;;;;9907236;29;20209;-80
2022/01/19 22:21:26;;;;;;;28.20;4.80;;;;;4.10;102051.00;;;;9902321;29;20600;-80
2022/01/19 22:26:28;;;;;;;27.43;5.33;;;;;4.30;102063.00;;;;9916415;29;20248;-81
2022/01/19 22:31:30;;;;;;;26.77;6.63;;;;;4.40;102075.00;;;;9902249;29;20199;-81
2022/01/19 22:36:33;;;;;;;20.10;4.83;;;;;4.50;102075.00;;;;9894229;30;20222;-80
2022/01/19 22:41:35;;;;;;;32.00;4.97;;;;;4.60;102077.00;;;;9910989;29;20265;-80
2022/01/19 22:46:37;;;;;;;19.27;4.93;;;;;4.50;102080.00;;;;9916351;29;20211;-80
2022/01/19 22:51:39;;;;;;;21.47;4.47;;;;;4.50;102078.00;;;;9900309;29;20668;-80
2022/01/19 22:56:41;;;;;;;35.03;4.70;;;;;4.50;102081.00;;;;9900695;29;20198;-79
2022/01/19 23:01:43;;;;;;;25.27;4.53;;;;;4.50;102093.00;;;;9900583;29;20210;-80
2022/01/19 23:06:45;;;;;;;23.00;5.40;;;;;4.50;102083.00;;;;9886812;29;20227;-79
2022/01/19 23:11:51;;;;;;;24.23;5.10;;;;;4.60;102088.00;;;;9906433;29;20207;-80
2022/01/19 23:16:53;;;;;;;21.47;4.10;;;;;4.60;102073.00;;;;9908524;29;20209;-80
2022/01/19 23:21:55;;;;;;;25.20;5.33;;;;;4.60;102090.00;;;;9921725;29;20219;-80
2022/01/19 23:26:59;;;;;;;24.40;4.60;;;;;4.60;102067.00;;;;9922759;29;20203;-81
2022/01/19 23:32:10;;;;;;;21.97;4.17;;;;;4.50;102089.00;;;;9914430;29;20207;-79
2022/01/19 23:37:37;;;;;;;21.37;4.73;;;;;4.30;102105.00;;;;9906542;29;20227;-79
2022/01/19 23:48:10;;;;;;;22.77;5.20;;;;;4.10;102097.00;;;;9884431;30;20200;-79
2022/01/19 23:53:12;;;;;;;20.10;4.00;;;;;3.90;102099.00;;;;9869314;30;20203;-79
2022/01/19 23:58:19;;;;;;;13.47;2.83;;;;;3.80;102106.00;;;;9891508;29;20236;-80
